createdAt,value
2017-08-04T00:00:37.369Z,21.60
2017-08-04T00:03:05.776Z,21.60
2017-08-04T00:05:34.189Z,21.50
2017-08-04T00:08:02.769Z,21.50
2017-08-04T00:10:31.189Z,21.50
2017-08-04T00:12:59.596Z,21.50
2017-08-04T00:15:28.917Z,21.50
2017-08-04T00:17:57.322Z,21.40
2017-08-04T00:20:25.753Z,21.50
2017-08-04T00:22:54.186Z,21.50
2017-08-04T00:25:22.614Z,21.50
2017-08-04T00:27:51.794Z,21.50
2017-08-04T00:30:20.903Z,21.50
2017-08-04T00:32:50.077Z,21.50
2017-08-04T00:35:18.517Z,21.50
2017-08-04T00:37:46.916Z,21.50
2017-08-04T00:40:15.460Z,21.50
2017-08-04T00:42:43.874Z,21.50
2017-08-04T00:45:12.298Z,21.50
2017-08-04T00:47:41.487Z,21.50
2017-08-04T00:50:10.001Z,21.50
2017-08-04T00:52:38.416Z,21.50
2017-08-04T00:55:06.821Z,21.40
2017-08-04T00:57:35.332Z,21.40
2017-08-04T01:00:03.760Z,21.40
2017-08-04T01:02:32.181Z,21.30
2017-08-04T01:05:01.376Z,21.30
2017-08-04T01:07:30.553Z,21.30
2017-08-04T01:09:58.973Z,21.30
2017-08-04T01:12:27.388Z,21.30
2017-08-04T01:14:55.816Z,21.20
2017-08-04T01:17:24.228Z,21.20
2017-08-04T01:19:52.647Z,21.20
2017-08-04T01:22:21.091Z,21.20
2017-08-04T01:24:49.521Z,21.20
2017-08-04T01:27:18.698Z,21.10
2017-08-04T01:29:47.138Z,21.10
2017-08-04T01:32:15.568Z,21.10
2017-08-04T01:34:43.651Z,21.10
2017-08-04T01:37:12.146Z,21.00
2017-08-04T01:39:40.217Z,21.00
2017-08-04T01:42:08.629Z,21.00
2017-08-04T01:44:37.069Z,21.00
2017-08-04T01:47:05.140Z,21.00
2017-08-04T01:49:33.572Z,21.00
2017-08-04T01:52:02.654Z,21.00
2017-08-04T01:54:31.073Z,21.00
2017-08-04T01:56:59.921Z,20.90
2017-08-04T01:59:27.633Z,20.90
2017-08-04T02:01:56.820Z,20.90
2017-08-04T02:04:26.008Z,20.90
2017-08-04T02:06:54.072Z,20.90
2017-08-04T02:09:22.484Z,20.90
2017-08-04T02:11:50.657Z,20.80
2017-08-04T02:14:19.069Z,20.80
2017-08-04T02:16:47.501Z,20.80
2017-08-04T02:19:16.676Z,20.80
2017-08-04T02:21:46.014Z,20.80
2017-08-04T02:24:15.188Z,20.80
2017-08-04T02:26:44.385Z,20.80
2017-08-04T02:29:13.564Z,20.80
2017-08-04T02:31:41.996Z,20.80
2017-08-04T02:34:10.410Z,20.70
2017-08-04T02:36:38.837Z,20.70
2017-08-04T02:39:06.897Z,20.60
2017-08-04T02:41:36.109Z,20.60
2017-08-04T02:44:04.529Z,20.60
2017-08-04T02:46:32.956Z,20.60
2017-08-04T02:49:02.152Z,20.70
2017-08-04T02:51:31.332Z,20.70
2017-08-04T02:53:59.751Z,20.70
2017-08-04T02:56:28.173Z,20.70
2017-08-04T02:58:56.595Z,20.70
2017-08-04T03:01:25.069Z,20.70
2017-08-04T03:03:54.253Z,20.60
2017-08-04T03:06:23.464Z,20.50
2017-08-04T03:08:51.914Z,20.60
2017-08-04T03:11:20.417Z,20.50
2017-08-04T03:13:50.092Z,20.50
2017-08-04T03:16:19.210Z,20.50
2017-08-04T03:18:48.385Z,20.40
2017-08-04T03:21:16.804Z,20.40
2017-08-04T03:23:45.241Z,20.50
2017-08-04T03:26:13.652Z,20.50
2017-08-04T03:28:42.857Z,20.50
2017-08-04T03:31:12.037Z,20.50
2017-08-04T03:33:41.242Z,20.50
2017-08-04T03:36:10.427Z,20.50
2017-08-04T03:38:39.525Z,20.50
2017-08-04T03:41:08.705Z,20.50
2017-08-04T03:43:38.991Z,20.50
2017-08-04T03:46:07.397Z,20.50
2017-08-04T03:48:36.444Z,20.50
2017-08-04T03:51:04.944Z,20.50
2017-08-04T03:53:33.348Z,20.50
2017-08-04T03:56:02.107Z,20.40
2017-08-04T03:58:30.513Z,20.40
2017-08-04T04:00:59.153Z,20.40
2017-08-04T04:03:27.573Z,20.40
2017-08-04T04:05:55.651Z,20.40
2017-08-04T04:08:23.728Z,20.40
2017-08-04T04:10:52.173Z,20.40
2017-08-04T04:13:20.607Z,20.40
2017-08-04T04:15:49.791Z,20.40
2017-08-04T04:18:18.161Z,20.40
2017-08-04T04:20:46.581Z,20.40
2017-08-04T04:23:15.988Z,20.40
2017-08-04T04:25:45.347Z,20.50
2017-08-04T04:28:13.772Z,20.50
2017-08-04T04:30:42.192Z,20.60
2017-08-04T04:33:10.622Z,20.50
2017-08-04T04:35:39.041Z,20.40
2017-08-04T04:38:07.497Z,20.40
2017-08-04T04:40:35.952Z,20.30
2017-08-04T04:43:04.370Z,20.40
2017-08-04T04:45:32.797Z,20.40
2017-08-04T04:48:02.032Z,20.40
2017-08-04T04:50:30.448Z,20.40
2017-08-04T04:52:58.857Z,20.40
2017-08-04T04:55:28.037Z,20.40
2017-08-04T04:57:57.213Z,20.40
2017-08-04T05:00:25.294Z,20.40
2017-08-04T05:02:54.413Z,20.40
2017-08-04T05:05:23.416Z,20.50
2017-08-04T05:07:51.926Z,20.50
2017-08-04T05:10:20.353Z,20.50
2017-08-04T05:12:49.467Z,20.50
2017-08-04T05:15:18.661Z,20.40
2017-08-04T05:17:48.859Z,20.40
2017-08-04T05:20:17.286Z,20.40
2017-08-04T05:22:45.721Z,20.40
2017-08-04T05:25:14.157Z,20.30
2017-08-04T05:27:42.546Z,20.30
2017-08-04T05:30:10.606Z,20.20
2017-08-04T05:32:39.041Z,20.30
2017-08-04T05:35:08.246Z,20.30
2017-08-04T05:37:37.419Z,20.30
2017-08-04T05:40:05.853Z,20.30
2017-08-04T05:42:35.969Z,20.30
2017-08-04T05:45:04.381Z,20.40
2017-08-04T05:47:32.804Z,20.40
2017-08-04T05:50:01.227Z,20.40
2017-08-04T05:52:29.657Z,20.40
2017-08-04T05:54:58.085Z,20.40
2017-08-04T05:57:26.545Z,20.40
2017-08-04T05:59:54.953Z,20.40
2017-08-04T06:02:23.333Z,20.40
2017-08-04T06:04:51.768Z,20.40
2017-08-04T06:07:20.015Z,20.40
2017-08-04T06:09:49.209Z,20.40
2017-08-04T06:12:18.317Z,20.40
2017-08-04T06:14:49.525Z,20.40
2017-08-04T06:17:18.326Z,20.40
2017-08-04T06:19:47.983Z,20.40
2017-08-04T06:22:16.076Z,20.40
2017-08-04T06:24:45.300Z,20.50
2017-08-04T06:27:13.722Z,20.50
2017-08-04T06:29:42.715Z,20.50
2017-08-04T06:32:12.242Z,20.50
2017-08-04T06:34:40.660Z,20.50
2017-08-04T06:37:10.522Z,20.50
2017-08-04T06:39:38.949Z,20.50
2017-08-04T06:42:07.437Z,20.50
2017-08-04T06:44:36.654Z,20.40
2017-08-04T06:47:05.821Z,20.50
2017-08-04T06:49:46.132Z,20.50
2017-08-04T06:52:25.819Z,20.50
2017-08-04T06:55:06.064Z,20.50
2017-08-04T06:57:34.486Z,20.50
2017-08-04T07:00:02.921Z,20.50
2017-08-04T07:02:31.352Z,20.50
2017-08-04T07:04:59.783Z,20.60
2017-08-04T07:07:28.225Z,20.60
2017-08-04T07:09:56.637Z,20.60
2017-08-04T07:12:25.093Z,20.60
2017-08-04T07:14:53.515Z,20.60
2017-08-04T07:17:22.688Z,20.60
2017-08-04T07:19:51.146Z,20.60
2017-08-04T07:22:19.569Z,20.60
2017-08-04T07:24:48.767Z,20.60
2017-08-04T07:27:17.622Z,20.70
2017-08-04T07:29:46.045Z,20.70
2017-08-04T07:32:15.238Z,20.70
2017-08-04T07:34:44.417Z,20.80
2017-08-04T07:37:13.000Z,20.70
2017-08-04T07:39:42.092Z,20.70
2017-08-04T07:42:10.524Z,20.80
2017-08-04T07:44:38.939Z,20.80
2017-08-04T07:47:07.365Z,20.90
2017-08-04T07:49:35.789Z,21.00
2017-08-04T07:52:04.237Z,21.00
2017-08-04T07:54:32.659Z,21.00
2017-08-04T07:57:01.757Z,21.00
2017-08-04T07:59:30.178Z,21.10
2017-08-04T08:01:58.596Z,21.30
2017-08-04T08:04:27.285Z,21.40
2017-08-04T08:06:55.696Z,21.60
2017-08-04T08:09:25.151Z,21.80
2017-08-04T08:11:53.593Z,21.80
2017-08-04T08:14:22.044Z,22.00
2017-08-04T08:16:50.456Z,22.00
2017-08-04T08:19:20.367Z,22.00
2017-08-04T08:21:48.998Z,21.90
2017-08-04T08:24:17.416Z,21.90
2017-08-04T08:26:49.434Z,22.00
2017-08-04T08:29:18.128Z,22.00
2017-08-04T08:31:48.132Z,22.00
2017-08-04T08:34:16.556Z,22.00
2017-08-04T08:36:45.741Z,21.80
2017-08-04T08:39:14.957Z,21.80
2017-08-04T08:41:43.393Z,21.80
2017-08-04T08:44:11.812Z,21.80
2017-08-04T08:46:40.249Z,21.70
2017-08-04T08:49:09.005Z,21.70
2017-08-04T08:51:37.566Z,21.80
2017-08-04T08:54:06.322Z,22.10
2017-08-04T08:56:34.746Z,22.20
2017-08-04T08:59:03.169Z,22.20
2017-08-04T09:01:31.606Z,22.20
2017-08-04T09:04:00.021Z,22.50
2017-08-04T09:06:28.458Z,22.70
2017-08-04T09:08:56.910Z,22.80
2017-08-04T09:11:26.234Z,23.10
2017-08-04T09:13:54.653Z,23.10
2017-08-04T09:16:23.195Z,23.20
2017-08-04T09:18:51.640Z,23.20
2017-08-04T09:21:20.833Z,23.00
2017-08-04T09:23:50.052Z,23.00
2017-08-04T09:26:18.507Z,23.00
2017-08-04T09:28:46.961Z,23.10
2017-08-04T09:31:15.383Z,23.10
2017-08-04T09:33:48.542Z,23.20
2017-08-04T09:36:19.474Z,23.20
2017-08-04T09:38:47.921Z,23.20
2017-08-04T09:41:20.008Z,23.40
2017-08-04T09:43:48.537Z,23.40
2017-08-04T09:46:22.844Z,23.30
2017-08-04T09:48:51.549Z,23.30
2017-08-04T09:51:20.055Z,23.40
2017-08-04T09:53:52.290Z,23.40
2017-08-04T09:56:28.715Z,23.60
2017-08-04T09:58:57.557Z,23.30
2017-08-04T10:01:25.982Z,23.30
2017-08-04T10:03:55.108Z,23.20
2017-08-04T10:06:24.302Z,22.90
2017-08-04T10:08:53.514Z,22.90
2017-08-04T10:11:21.941Z,22.90
2017-08-04T10:13:50.639Z,22.70
2017-08-04T10:16:19.081Z,22.70
2017-08-04T10:18:47.491Z,22.90
2017-08-04T10:21:15.892Z,23.10
2017-08-04T10:23:44.892Z,22.90
2017-08-04T10:26:14.065Z,22.80
2017-08-04T10:28:42.493Z,22.80
2017-08-04T10:31:11.383Z,22.90
2017-08-04T10:33:39.797Z,22.90
2017-08-04T10:36:08.225Z,23.20
2017-08-04T10:38:36.688Z,23.60
2017-08-04T10:41:05.884Z,24.30
2017-08-04T10:43:35.072Z,24.80
2017-08-04T10:46:04.254Z,25.10
2017-08-04T10:48:32.690Z,25.00
2017-08-04T10:51:01.100Z,25.30
2017-08-04T10:53:29.561Z,25.20
2017-08-04T10:55:57.781Z,25.30
2017-08-04T10:58:26.975Z,25.40
2017-08-04T11:00:55.400Z,25.40
2017-08-04T11:03:23.813Z,25.60
2017-08-04T11:05:53.054Z,25.50
2017-08-04T11:08:21.481Z,25.10
2017-08-04T11:10:49.917Z,24.80
2017-08-04T11:13:18.329Z,24.80
2017-08-04T11:15:48.440Z,25.10
2017-08-04T11:18:16.876Z,25.10
2017-08-04T11:20:45.336Z,24.90
2017-08-04T11:23:13.775Z,24.70
2017-08-04T11:25:42.200Z,24.70
2017-08-04T11:28:11.303Z,24.60
2017-08-04T11:30:40.505Z,24.70
2017-08-04T11:33:08.915Z,24.70
2017-08-04T11:35:37.342Z,24.60
2017-08-04T11:38:05.764Z,24.70
2017-08-04T11:40:34.168Z,24.80
2017-08-04T11:43:03.506Z,24.70
2017-08-04T11:45:31.915Z,24.50
2017-08-04T11:48:00.337Z,24.40
2017-08-04T11:50:29.807Z,24.40
2017-08-04T11:52:58.225Z,24.40
2017-08-04T11:55:26.658Z,24.50
2017-08-04T11:57:55.086Z,24.60
2017-08-04T12:00:23.545Z,24.70
2017-08-04T12:02:51.944Z,24.60
2017-08-04T12:05:20.376Z,24.70
2017-08-04T12:07:48.789Z,24.80
2017-08-04T12:10:17.203Z,24.70
2017-08-04T12:12:46.393Z,25.00
2017-08-04T12:15:14.788Z,25.00
2017-08-04T12:17:43.216Z,25.20
2017-08-04T12:20:11.638Z,25.10
2017-08-04T12:22:40.843Z,25.10
2017-08-04T12:25:09.673Z,25.00
2017-08-04T12:27:38.133Z,25.00
2017-08-04T12:30:06.577Z,25.10
2017-08-04T12:32:35.800Z,25.30
2017-08-04T12:35:04.915Z,25.30
2017-08-04T12:37:33.370Z,25.30
2017-08-04T12:40:02.592Z,25.40
2017-08-04T12:42:31.046Z,25.40
2017-08-04T12:44:59.454Z,25.40
2017-08-04T12:47:27.894Z,25.40
2017-08-04T12:49:56.309Z,25.50
2017-08-04T12:52:24.748Z,25.70
2017-08-04T12:54:53.176Z,26.00
2017-08-04T12:57:21.596Z,26.10
2017-08-04T12:59:50.032Z,26.30
2017-08-04T13:02:18.449Z,26.20
2017-08-04T13:04:47.657Z,26.20
2017-08-04T13:07:16.849Z,26.20
2017-08-04T13:09:46.023Z,26.30
2017-08-04T13:12:14.457Z,26.30
2017-08-04T13:14:42.888Z,26.50
2017-08-04T13:17:11.390Z,26.70
2017-08-04T13:19:39.813Z,26.80
2017-08-04T13:22:08.263Z,27.00
2017-08-04T13:24:36.685Z,27.20
2017-08-04T13:27:05.213Z,27.20
2017-08-04T13:29:33.649Z,27.20
2017-08-04T13:32:02.059Z,27.10
2017-08-04T13:34:31.260Z,27.20
2017-08-04T13:36:59.690Z,27.20
2017-08-04T13:39:27.778Z,27.10
2017-08-04T13:41:56.185Z,26.90
2017-08-04T13:44:24.673Z,26.80
2017-08-04T13:46:53.149Z,26.70
2017-08-04T13:49:22.327Z,27.00
2017-08-04T13:51:50.776Z,26.90
2017-08-04T13:54:19.196Z,26.90
2017-08-04T13:56:48.383Z,26.50
2017-08-04T13:59:16.810Z,26.50
2017-08-04T14:01:45.241Z,26.60
2017-08-04T14:04:13.672Z,26.70
2017-08-04T14:06:42.102Z,26.80
2017-08-04T14:09:11.231Z,26.90
2017-08-04T14:11:39.652Z,26.70
2017-08-04T14:14:08.090Z,26.40
2017-08-04T14:16:36.504Z,26.10
2017-08-04T14:19:04.697Z,26.00
2017-08-04T14:21:33.885Z,25.80
2017-08-04T14:24:02.749Z,25.70
2017-08-04T14:26:31.154Z,25.70
2017-08-04T14:28:59.593Z,25.50
2017-08-04T14:31:28.016Z,25.70
2017-08-04T14:33:56.445Z,25.80
2017-08-04T14:36:24.901Z,25.80
2017-08-04T14:38:53.331Z,25.90
2017-08-04T14:41:21.757Z,26.00
2017-08-04T14:43:50.182Z,26.00
2017-08-04T14:46:18.620Z,25.90
2017-08-04T14:48:47.798Z,25.80
2017-08-04T14:51:16.222Z,25.90
2017-08-04T14:53:45.667Z,25.80
2017-08-04T14:56:14.851Z,25.70
2017-08-04T14:58:43.290Z,25.70
2017-08-04T15:01:11.715Z,25.70
2017-08-04T15:03:40.926Z,25.50
2017-08-04T15:06:09.376Z,25.50
2017-08-04T15:08:37.901Z,25.50
2017-08-04T15:11:06.348Z,25.50
2017-08-04T15:13:34.760Z,25.40
2017-08-04T15:16:03.213Z,25.50
2017-08-04T15:18:32.401Z,25.70
2017-08-04T15:21:01.601Z,25.80
2017-08-04T15:23:30.814Z,25.70
2017-08-04T15:25:59.308Z,25.70
2017-08-04T15:28:27.759Z,25.80
2017-08-04T15:30:56.948Z,25.60
2017-08-04T15:33:25.963Z,25.50
2017-08-04T15:35:54.408Z,25.50
2017-08-04T15:38:22.829Z,25.40
2017-08-04T15:40:51.281Z,25.20
2017-08-04T15:43:20.495Z,25.10
2017-08-04T15:45:48.956Z,25.10
2017-08-04T15:48:18.168Z,25.00
2017-08-04T15:50:47.355Z,24.90
2017-08-04T15:53:16.569Z,24.80
2017-08-04T15:55:44.969Z,24.80
2017-08-04T15:58:13.401Z,24.70
2017-08-04T16:00:42.604Z,24.60
2017-08-04T16:03:11.104Z,24.60
2017-08-04T16:05:39.652Z,24.60
2017-08-04T16:08:08.087Z,24.60
2017-08-04T16:10:36.538Z,24.60
2017-08-04T16:13:04.957Z,24.60
2017-08-04T16:15:33.486Z,24.70
2017-08-04T16:18:02.677Z,24.70
2017-08-04T16:20:31.812Z,24.60
2017-08-04T16:23:00.248Z,24.70
2017-08-04T16:25:29.473Z,24.60
2017-08-04T16:27:57.952Z,24.60
2017-08-04T16:30:26.389Z,24.60
2017-08-04T16:32:54.821Z,24.50
2017-08-04T16:35:23.305Z,24.40
2017-08-04T16:37:51.751Z,24.50
2017-08-04T16:40:20.954Z,24.40
2017-08-04T16:42:50.154Z,24.40
2017-08-04T16:45:18.598Z,24.40
2017-08-04T16:47:47.014Z,24.50
2017-08-04T16:50:15.429Z,24.50
2017-08-04T16:52:43.682Z,24.40
2017-08-04T16:55:12.102Z,24.40
2017-08-04T16:57:40.724Z,24.50
2017-08-04T17:00:09.128Z,24.40
2017-08-04T17:02:37.568Z,24.50
2017-08-04T17:05:06.920Z,24.60
2017-08-04T17:07:35.335Z,24.60
2017-08-04T17:10:03.428Z,24.60
2017-08-04T17:12:31.837Z,24.60
2017-08-04T17:15:00.268Z,24.60
2017-08-04T17:17:29.444Z,24.50
2017-08-04T17:19:58.545Z,24.50
2017-08-04T17:22:26.994Z,24.40
2017-08-04T17:24:55.422Z,24.40
2017-08-04T17:27:24.668Z,24.30
2017-08-04T17:29:53.077Z,24.30
2017-08-04T17:32:22.562Z,24.30
2017-08-04T17:34:51.665Z,24.30
2017-08-04T17:37:20.197Z,24.30
2017-08-04T17:39:50.095Z,24.20
2017-08-04T17:42:18.563Z,24.20
2017-08-04T17:44:47.752Z,24.30
2017-08-04T17:47:17.096Z,24.20
2017-08-04T17:49:45.514Z,24.20
2017-08-04T17:52:13.953Z,24.20
2017-08-04T17:54:42.377Z,24.20
2017-08-04T17:57:10.794Z,24.20
2017-08-04T17:59:39.222Z,24.10
2017-08-04T18:02:07.860Z,24.20
2017-08-04T18:04:36.276Z,24.20
2017-08-04T18:07:04.740Z,24.20
2017-08-04T18:09:34.117Z,24.30
2017-08-04T18:12:03.007Z,24.30
2017-08-04T18:14:32.150Z,24.30
2017-08-04T18:17:01.315Z,24.20
2017-08-04T18:19:29.588Z,24.20
2017-08-04T18:21:59.095Z,24.10
2017-08-04T18:24:28.302Z,24.00
2017-08-04T18:26:56.425Z,24.00
2017-08-04T18:29:25.116Z,23.90
2017-08-04T18:31:55.295Z,23.80
2017-08-04T18:34:24.565Z,23.80
2017-08-04T18:36:52.841Z,23.70
2017-08-04T18:39:21.290Z,23.70
2017-08-04T18:41:49.560Z,23.60
2017-08-04T18:44:20.377Z,23.60
2017-08-04T18:46:49.536Z,23.50
2017-08-04T18:49:17.961Z,23.60
2017-08-04T18:51:48.108Z,23.50
2017-08-04T18:54:17.945Z,23.50
2017-08-04T18:56:47.708Z,23.40
2017-08-04T18:59:16.900Z,23.40
2017-08-04T19:01:46.455Z,23.40
2017-08-04T19:04:14.862Z,23.30
2017-08-04T19:06:43.310Z,23.30
2017-08-04T19:09:12.828Z,23.30
2017-08-04T19:11:40.953Z,23.30
2017-08-04T19:14:09.902Z,23.30
2017-08-04T19:16:41.309Z,23.20
2017-08-04T19:19:12.196Z,23.20
2017-08-04T19:21:41.352Z,23.20
2017-08-04T19:24:10.262Z,23.20
2017-08-04T19:26:38.696Z,23.10
2017-08-04T19:29:08.201Z,23.10
2017-08-04T19:31:37.406Z,23.00
2017-08-04T19:34:05.822Z,23.00
2017-08-04T19:36:34.225Z,23.00
2017-08-04T19:39:02.668Z,23.00
2017-08-04T19:41:31.085Z,22.90
2017-08-04T19:44:01.639Z,22.80
2017-08-04T19:46:30.168Z,22.80
2017-08-04T19:48:58.608Z,22.90
2017-08-04T19:51:27.988Z,22.80
2017-08-04T19:53:57.169Z,22.80
2017-08-04T19:56:25.658Z,22.70
2017-08-04T19:58:54.850Z,22.70
2017-08-04T20:01:24.059Z,22.70
2017-08-04T20:03:53.233Z,22.70
2017-08-04T20:06:21.721Z,22.70
2017-08-04T20:08:50.232Z,22.70
2017-08-04T20:11:18.660Z,22.70
2017-08-04T20:13:47.101Z,22.70
2017-08-04T20:16:15.527Z,22.70
2017-08-04T20:18:44.657Z,22.60
2017-08-04T20:21:13.877Z,22.60
2017-08-04T20:23:42.305Z,22.60
2017-08-04T20:26:11.497Z,22.50
2017-08-04T20:28:39.934Z,22.50
2017-08-04T20:31:08.418Z,22.50
2017-08-04T20:33:36.869Z,22.40
2017-08-04T20:36:06.065Z,22.30
2017-08-04T20:38:34.518Z,22.30
2017-08-04T20:41:03.037Z,22.30
2017-08-04T20:43:31.524Z,22.30
2017-08-04T20:46:00.011Z,22.30
2017-08-04T20:48:28.444Z,22.30
2017-08-04T20:50:56.905Z,22.20
2017-08-04T20:53:26.029Z,22.20
2017-08-04T20:55:55.233Z,22.20
2017-08-04T20:58:24.429Z,22.10
2017-08-04T21:00:52.878Z,22.10
2017-08-04T21:03:21.296Z,22.00
2017-08-04T21:05:49.742Z,22.00
2017-08-04T21:08:18.366Z,21.90
2017-08-04T21:10:46.834Z,21.90
2017-08-04T21:13:15.337Z,21.90
2017-08-04T21:15:43.769Z,21.90
2017-08-04T21:18:12.194Z,21.90
2017-08-04T21:20:40.648Z,21.90
2017-08-04T21:23:08.829Z,21.90
2017-08-04T21:25:36.948Z,21.80
2017-08-04T21:28:05.395Z,21.80
2017-08-04T21:30:33.915Z,21.80
2017-08-04T21:33:02.355Z,21.70
2017-08-04T21:35:30.815Z,21.70
2017-08-04T21:37:59.296Z,21.70
2017-08-04T21:40:27.534Z,21.70
2017-08-04T21:42:55.960Z,21.60
2017-08-04T21:45:24.409Z,21.60
2017-08-04T21:47:53.685Z,21.50
2017-08-04T21:50:22.161Z,21.50
2017-08-04T21:52:50.586Z,21.50
2017-08-04T21:55:19.052Z,21.40
2017-08-04T21:57:48.230Z,21.40
2017-08-04T22:00:17.473Z,21.50
2017-08-04T22:02:45.910Z,21.50
2017-08-04T22:05:15.087Z,21.50
2017-08-04T22:07:43.634Z,21.50
2017-08-04T22:10:12.073Z,21.50
2017-08-04T22:12:41.281Z,21.40
2017-08-04T22:15:09.723Z,21.40
2017-08-04T22:17:38.208Z,21.40
2017-08-04T22:20:06.652Z,21.30
2017-08-04T22:22:35.074Z,21.30
2017-08-04T22:25:03.530Z,21.30
2017-08-04T22:27:31.969Z,21.20
2017-08-04T22:30:00.455Z,21.10
2017-08-04T22:32:29.001Z,21.10
2017-08-04T22:34:58.184Z,21.00
2017-08-04T22:37:26.631Z,21.00
2017-08-04T22:39:55.046Z,21.00
2017-08-04T22:42:24.174Z,20.90
2017-08-04T22:44:52.731Z,20.90
2017-08-04T22:47:21.929Z,20.90
2017-08-04T22:49:51.105Z,20.90
2017-08-04T22:52:19.665Z,20.80
2017-08-04T22:54:48.076Z,20.80
2017-08-04T22:57:17.268Z,20.70
2017-08-04T22:59:45.726Z,20.60
2017-08-04T23:02:14.492Z,20.60
2017-08-04T23:04:42.967Z,20.50
2017-08-04T23:07:11.388Z,20.50
2017-08-04T23:09:39.805Z,20.50
2017-08-04T23:12:08.228Z,20.60
2017-08-04T23:14:36.673Z,20.60
2017-08-04T23:17:05.112Z,20.60
2017-08-04T23:19:33.532Z,20.60
2017-08-04T23:22:03.870Z,20.30
2017-08-04T23:24:32.450Z,20.30
2017-08-04T23:27:00.913Z,20.30
2017-08-04T23:29:29.541Z,20.30
2017-08-04T23:31:57.949Z,20.50
2017-08-04T23:34:27.132Z,20.40
2017-08-04T23:36:55.568Z,20.40
2017-08-04T23:39:23.972Z,20.40
2017-08-04T23:41:52.401Z,20.30
2017-08-04T23:44:20.837Z,20.30
2017-08-04T23:46:49.259Z,20.20
2017-08-04T23:49:17.679Z,20.20
2017-08-04T23:51:46.118Z,20.20
2017-08-04T23:54:14.928Z,20.20
2017-08-04T23:56:43.340Z,20.30
2017-08-04T23:59:11.798Z,20.40
